sensor_id;sensor_type;location;lat;lon;timestamp;temperature;humidity
8778;DHT22;4425;50.872;4.712;2023-03-01T00:01:32;1.20;99.90
8778;DHT22;4425;50.872;4.712;2023-03-01T00:04:00;1.00;99.90
8778;DHT22;4425;50.872;4.712;2023-03-01T00:06:29;1.00;99.90
8778;DHT22;4425;50.872;4.712;2023-03-01T00:08:56;1.00;99.90
8778;DHT22;4425;50.872;4.712;2023-03-01T00:11:25;1.00;99.90
8778;DHT22;4425;50.872;4.712;2023-03-01T00:13:57;1.00;99.90
8778;DHT22;4425;50.872;4.712;2023-03-01T00:16:27;1.00;99.90
8778;DHT22;4425;50.872;4.712;2023-03-01T00:18:56;1.00;99.90
8778;DHT22;4425;50.872;4.712;2023-03-01T00:21:24;0.90;99.90
8778;DHT22;4425;50.872;4.712;2023-03-01T00:23:54;0.90;99.90
8778;DHT22;4425;50.872;4.712;2023-03-01T00:26:28;0.90;99.90
8778;DHT22;4425;50.872;4.712;2023-03-01T00:28:58;0.90;99.90
8778;DHT22;4425;50.872;4.712;2023-03-01T00:31:28;0.90;99.90
8778;DHT22;4425;50.872;4.712;2023-03-01T00:33:57;0.80;99.90
8778;DHT22;4425;50.872;4.712;2023-03-01T00:36:27;0.80;99.90
8778;DHT22;4425;50.872;4.712;2023-03-01T00:38:56;0.80;99.90
8778;DHT22;4425;50.872;4.712;2023-03-01T00:44:30;0.70;99.90
8778;DHT22;4425;50.872;4.712;2023-03-01T00:47:06;0.70;99.90
8778;DHT22;4425;50.872;4.712;2023-03-01T00:49:33;0.70;99.90
8778;DHT22;4425;50.872;4.712;2023-03-01T00:52:00;0.70;99.90
8778;DHT22;4425;50.872;4.712;2023-03-01T00:54:28;0.70;99.90
8778;DHT22;4425;50.872;4.712;2023-03-01T00:56:55;0.70;99.90
8778;DHT22;4425;50.872;4.712;2023-03-01T00:59:22;0.60;99.90
8778;DHT22;4425;50.872;4.712;2023-03-01T01:01:50;0.60;99.90
8778;DHT22;4425;50.872;4.712;2023-03-01T01:04:17;0.60;99.90
8778;DHT22;4425;50.872;4.712;2023-03-01T01:06:49;0.60;99.90
8778;DHT22;4425;50.872;4.712;2023-03-01T01:09:17;0.60;99.90
8778;DHT22;4425;50.872;4.712;2023-03-01T01:11:46;0.50;99.90
8778;DHT22;4425;50.872;4.712;2023-03-01T01:14:15;0.50;99.90
8778;DHT22;4425;50.872;4.712;2023-03-01T01:16:43;0.40;99.90
8778;DHT22;4425;50.872;4.712;2023-03-01T01:19:12;0.40;99.90
8778;DHT22;4425;50.872;4.712;2023-03-01T01:21:40;0.40;99.90
8778;DHT22;4425;50.872;4.712;2023-03-01T01:24:09;0.40;99.90
8778;DHT22;4425;50.872;4.712;2023-03-01T01:26:36;0.30;99.90
8778;DHT22;4425;50.872;4.712;2023-03-01T01:29:04;0.30;99.90
8778;DHT22;4425;50.872;4.712;2023-03-01T01:31:32;0.30;99.90
8778;DHT22;4425;50.872;4.712;2023-03-01T01:34:07;0.30;99.90
8778;DHT22;4425;50.872;4.712;2023-03-01T01:36:40;0.30;99.90
8778;DHT22;4425;50.872;4.712;2023-03-01T01:39:07;0.30;99.90
8778;DHT22;4425;50.872;4.712;2023-03-01T01:41:39;0.30;99.90
8778;DHT22;4425;50.872;4.712;2023-03-01T01:44:16;0.30;99.90
8778;DHT22;4425;50.872;4.712;2023-03-01T01:46:46;0.30;99.90
8778;DHT22;4425;50.872;4.712;2023-03-01T01:49:23;0.20;99.90
8778;DHT22;4425;50.872;4.712;2023-03-01T01:51:57;0.20;99.90
8778;DHT22;4425;50.872;4.712;2023-03-01T01:54:30;0.20;99.90
8778;DHT22;4425;50.872;4.712;2023-03-01T01:57:00;0.20;99.90
8778;DHT22;4425;50.872;4.712;2023-03-01T01:59:31;0.20;99.90
8778;DHT22;4425;50.872;4.712;2023-03-01T02:02:00;0.20;99.90
8778;DHT22;4425;50.872;4.712;2023-03-01T02:04:28;0.20;99.90
8778;DHT22;4425;50.872;4.712;2023-03-01T02:07:01;0.20;99.90
8778;DHT22;4425;50.872;4.712;2023-03-01T02:09:30;0.20;99.90
8778;DHT22;4425;50.872;4.712;2023-03-01T02:11:58;0.20;99.90
8778;DHT22;4425;50.872;4.712;2023-03-01T02:14:26;0.10;99.90
8778;DHT22;4425;50.872;4.712;2023-03-01T02:16:53;0.10;99.90
8778;DHT22;4425;50.872;4.712;2023-03-01T02:19:31;0.20;99.90
8778;DHT22;4425;50.872;4.712;2023-03-01T02:22:10;0.10;99.90
8778;DHT22;4425;50.872;4.712;2023-03-01T02:24:44;0.20;99.90
8778;DHT22;4425;50.872;4.712;2023-03-01T02:27:20;0.10;99.90
8778;DHT22;4425;50.872;4.712;2023-03-01T02:29:55;0.00;99.90
8778;DHT22;4425;50.872;4.712;2023-03-01T02:32:26;0.00;99.90
8778;DHT22;4425;50.872;4.712;2023-03-01T02:34:55;0.00;99.90
8778;DHT22;4425;50.872;4.712;2023-03-01T02:37:24;0.00;99.90
8778;DHT22;4425;50.872;4.712;2023-03-01T02:43:09;-0.10;99.90
8778;DHT22;4425;50.872;4.712;2023-03-01T02:45:47;-0.10;99.90
8778;DHT22;4425;50.872;4.712;2023-03-01T02:48:14;-0.10;99.90
8778;DHT22;4425;50.872;4.712;2023-03-01T02:51:02;-0.10;99.90
8778;DHT22;4425;50.872;4.712;2023-03-01T02:53:44;-0.10;99.90
8778;DHT22;4425;50.872;4.712;2023-03-01T02:56:18;-0.10;99.90
8778;DHT22;4425;50.872;4.712;2023-03-01T03:02:31;-0.20;99.90
8778;DHT22;4425;50.872;4.712;2023-03-01T03:05:09;-0.20;99.90
8778;DHT22;4425;50.872;4.712;2023-03-01T03:07:38;-0.20;99.90
8778;DHT22;4425;50.872;4.712;2023-03-01T03:10:11;-0.20;99.90
8778;DHT22;4425;50.872;4.712;2023-03-01T03:12:39;-0.20;99.90
8778;DHT22;4425;50.872;4.712;2023-03-01T03:15:08;-0.20;99.90
8778;DHT22;4425;50.872;4.712;2023-03-01T03:17:41;-0.30;99.90
8778;DHT22;4425;50.872;4.712;2023-03-01T03:20:11;-0.30;99.90
8778;DHT22;4425;50.872;4.712;2023-03-01T03:22:38;-0.30;99.90
8778;DHT22;4425;50.872;4.712;2023-03-01T03:25:07;-0.40;99.90
8778;DHT22;4425;50.872;4.712;2023-03-01T03:27:39;-0.40;99.90
8778;DHT22;4425;50.872;4.712;2023-03-01T03:30:09;-0.40;99.90
8778;DHT22;4425;50.872;4.712;2023-03-01T03:32:41;-0.40;99.90
8778;DHT22;4425;50.872;4.712;2023-03-01T03:35:19;-0.20;99.90
8778;DHT22;4425;50.872;4.712;2023-03-01T03:37:46;-0.50;99.90
8778;DHT22;4425;50.872;4.712;2023-03-01T03:40:35;-0.50;99.90
8778;DHT22;4425;50.872;4.712;2023-03-01T03:43:05;-0.50;99.90
8778;DHT22;4425;50.872;4.712;2023-03-01T03:45:34;-0.50;99.90
8778;DHT22;4425;50.872;4.712;2023-03-01T03:48:04;-0.60;99.90
8778;DHT22;4425;50.872;4.712;2023-03-01T03:50:40;-0.50;99.90
8778;DHT22;4425;50.872;4.712;2023-03-01T03:56:07;-0.60;99.90
8778;DHT22;4425;50.872;4.712;2023-03-01T03:58:34;-0.60;99.90
8778;DHT22;4425;50.872;4.712;2023-03-01T04:01:04;-0.60;99.90
8778;DHT22;4425;50.872;4.712;2023-03-01T04:03:34;-0.60;99.90
8778;DHT22;4425;50.872;4.712;2023-03-01T04:06:03;-0.60;99.90
8778;DHT22;4425;50.872;4.712;2023-03-01T04:08:31;-0.60;99.90
8778;DHT22;4425;50.872;4.712;2023-03-01T04:11:13;-0.70;99.90
8778;DHT22;4425;50.872;4.712;2023-03-01T04:14:22;-0.60;99.90
8778;DHT22;4425;50.872;4.712;2023-03-01T04:16:52;-0.60;99.90
8778;DHT22;4425;50.872;4.712;2023-03-01T04:19:20;-0.60;99.90
8778;DHT22;4425;50.872;4.712;2023-03-01T04:21:51;-0.60;99.90
8778;DHT22;4425;50.872;4.712;2023-03-01T04:24:18;-0.60;99.90
8778;DHT22;4425;50.872;4.712;2023-03-01T04:26:45;-0.60;99.90
8778;DHT22;4425;50.872;4.712;2023-03-01T04:29:12;-0.60;99.90
8778;DHT22;4425;50.872;4.712;2023-03-01T04:31:40;-0.60;99.90
8778;DHT22;4425;50.872;4.712;2023-03-01T04:34:08;-0.60;99.90
8778;DHT22;4425;50.872;4.712;2023-03-01T04:36:36;-0.60;99.90
8778;DHT22;4425;50.872;4.712;2023-03-01T04:39:05;-0.60;99.90
8778;DHT22;4425;50.872;4.712;2023-03-01T04:41:38;-0.60;99.90
8778;DHT22;4425;50.872;4.712;2023-03-01T04:44:05;-0.70;99.90
8778;DHT22;4425;50.872;4.712;2023-03-01T04:46:36;-0.70;99.90
8778;DHT22;4425;50.872;4.712;2023-03-01T04:49:04;-0.70;99.90
8778;DHT22;4425;50.872;4.712;2023-03-01T04:51:31;-0.70;99.90
8778;DHT22;4425;50.872;4.712;2023-03-01T04:54:01;-0.80;99.90
8778;DHT22;4425;50.872;4.712;2023-03-01T04:56:30;-0.80;99.90
8778;DHT22;4425;50.872;4.712;2023-03-01T04:58:57;-0.80;99.90
8778;DHT22;4425;50.872;4.712;2023-03-01T05:01:27;-0.80;99.90
8778;DHT22;4425;50.872;4.712;2023-03-01T05:03:54;-0.80;99.90
8778;DHT22;4425;50.872;4.712;2023-03-01T05:06:21;-0.80;99.90
8778;DHT22;4425;50.872;4.712;2023-03-01T05:08:49;-0.80;99.90
8778;DHT22;4425;50.872;4.712;2023-03-01T05:11:29;-0.80;99.90
8778;DHT22;4425;50.872;4.712;2023-03-01T05:14:01;-0.90;99.90
8778;DHT22;4425;50.872;4.712;2023-03-01T05:16:37;-0.90;99.90
8778;DHT22;4425;50.872;4.712;2023-03-01T05:19:05;-0.90;99.90
8778;DHT22;4425;50.872;4.712;2023-03-01T05:21:37;-0.90;99.90
8778;DHT22;4425;50.872;4.712;2023-03-01T05:24:24;-1.00;99.90
8778;DHT22;4425;50.872;4.712;2023-03-01T05:26:58;-1.00;99.90
8778;DHT22;4425;50.872;4.712;2023-03-01T05:29:27;-1.00;99.90
8778;DHT22;4425;50.872;4.712;2023-03-01T05:31:56;-1.10;99.90
8778;DHT22;4425;50.872;4.712;2023-03-01T05:34:24;-1.10;99.90
8778;DHT22;4425;50.872;4.712;2023-03-01T05:36:51;-1.10;99.90
8778;DHT22;4425;50.872;4.712;2023-03-01T05:39:20;-1.10;99.90
8778;DHT22;4425;50.872;4.712;2023-03-01T05:41:52;-1.10;99.90
8778;DHT22;4425;50.872;4.712;2023-03-01T05:44:21;-1.10;99.90
8778;DHT22;4425;50.872;4.712;2023-03-01T05:46:49;-1.20;99.90
8778;DHT22;4425;50.872;4.712;2023-03-01T05:49:16;-1.10;99.90
8778;DHT22;4425;50.872;4.712;2023-03-01T05:51:48;-1.10;99.90
8778;DHT22;4425;50.872;4.712;2023-03-01T05:54:17;-1.20;99.90
8778;DHT22;4425;50.872;4.712;2023-03-01T05:56:44;-1.10;99.90
8778;DHT22;4425;50.872;4.712;2023-03-01T05:59:12;-1.20;99.90
8778;DHT22;4425;50.872;4.712;2023-03-01T06:01:41;-1.20;99.90
8778;DHT22;4425;50.872;4.712;2023-03-01T06:04:08;-1.20;99.90
8778;DHT22;4425;50.872;4.712;2023-03-01T06:06:36;-1.20;99.90
8778;DHT22;4425;50.872;4.712;2023-03-01T06:09:06;-1.20;99.90
8778;DHT22;4425;50.872;4.712;2023-03-01T06:11:35;-1.20;99.90
8778;DHT22;4425;50.872;4.712;2023-03-01T06:14:03;-1.20;99.90
8778;DHT22;4425;50.872;4.712;2023-03-01T06:16:32;-1.10;99.90
8778;DHT22;4425;50.872;4.712;2023-03-01T06:19:00;-1.10;99.90
8778;DHT22;4425;50.872;4.712;2023-03-01T06:21:30;-1.20;99.90
8778;DHT22;4425;50.872;4.712;2023-03-01T06:23:57;-1.20;99.90
8778;DHT22;4425;50.872;4.712;2023-03-01T06:26:30;-1.20;99.90
8778;DHT22;4425;50.872;4.712;2023-03-01T06:28:59;-1.20;99.90
8778;DHT22;4425;50.872;4.712;2023-03-01T06:31:29;-1.20;99.90
8778;DHT22;4425;50.872;4.712;2023-03-01T06:33:59;-1.20;99.90
8778;DHT22;4425;50.872;4.712;2023-03-01T06:36:26;-1.20;99.90
8778;DHT22;4425;50.872;4.712;2023-03-01T06:38:56;-1.20;99.90
8778;DHT22;4425;50.872;4.712;2023-03-01T06:41:27;-1.20;99.90
8778;DHT22;4425;50.872;4.712;2023-03-01T06:43:55;-1.20;99.90
8778;DHT22;4425;50.872;4.712;2023-03-01T06:46:22;-1.20;99.90
8778;DHT22;4425;50.872;4.712;2023-03-01T06:48:49;-1.20;99.90
8778;DHT22;4425;50.872;4.712;2023-03-01T06:51:23;-1.10;99.90
8778;DHT22;4425;50.872;4.712;2023-03-01T06:53:52;-1.10;99.90
8778;DHT22;4425;50.872;4.712;2023-03-01T06:56:27;-1.10;99.90
8778;DHT22;4425;50.872;4.712;2023-03-01T06:58:56;-1.10;99.90
8778;DHT22;4425;50.872;4.712;2023-03-01T07:01:23;-1.00;99.90
8778;DHT22;4425;50.872;4.712;2023-03-01T07:03:50;-1.00;99.90
8778;DHT22;4425;50.872;4.712;2023-03-01T07:06:17;-1.00;99.90
8778;DHT22;4425;50.872;4.712;2023-03-01T07:08:47;-1.00;99.90
8778;DHT22;4425;50.872;4.712;2023-03-01T07:11:14;-1.00;99.90
8778;DHT22;4425;50.872;4.712;2023-03-01T07:13:42;-1.00;99.90
8778;DHT22;4425;50.872;4.712;2023-03-01T07:16:10;-1.00;99.90
8778;DHT22;4425;50.872;4.712;2023-03-01T07:18:37;-0.90;99.90
8778;DHT22;4425;50.872;4.712;2023-03-01T07:21:06;-0.90;99.90
8778;DHT22;4425;50.872;4.712;2023-03-01T07:23:34;-0.90;99.90
8778;DHT22;4425;50.872;4.712;2023-03-01T07:26:02;-0.80;99.90
8778;DHT22;4425;50.872;4.712;2023-03-01T07:28:30;-0.80;99.90
8778;DHT22;4425;50.872;4.712;2023-03-01T07:31:03;-0.80;99.90
8778;DHT22;4425;50.872;4.712;2023-03-01T07:33:31;-0.80;99.90
8778;DHT22;4425;50.872;4.712;2023-03-01T07:36:00;-0.80;99.90
8778;DHT22;4425;50.872;4.712;2023-03-01T07:38:28;-0.70;99.90
8778;DHT22;4425;50.872;4.712;2023-03-01T07:40:58;-0.70;99.90
8778;DHT22;4425;50.872;4.712;2023-03-01T07:43:31;-0.60;99.90
8778;DHT22;4425;50.872;4.712;2023-03-01T07:45:59;-0.50;99.90
8778;DHT22;4425;50.872;4.712;2023-03-01T07:48:32;-0.50;99.90
8778;DHT22;4425;50.872;4.712;2023-03-01T07:51:01;-0.50;99.90
8778;DHT22;4425;50.872;4.712;2023-03-01T07:53:29;0.10;99.90
8778;DHT22;4425;50.872;4.712;2023-03-01T07:56:05;1.50;99.90
8778;DHT22;4425;50.872;4.712;2023-03-01T07:58:43;3.10;99.90
8778;DHT22;4425;50.872;4.712;2023-03-01T08:01:12;4.20;99.90
8778;DHT22;4425;50.872;4.712;2023-03-01T08:03:39;5.10;99.90
8778;DHT22;4425;50.872;4.712;2023-03-01T08:06:09;5.60;99.90
8778;DHT22;4425;50.872;4.712;2023-03-01T08:08:38;5.80;99.90
8778;DHT22;4425;50.872;4.712;2023-03-01T08:11:11;6.60;99.90
8778;DHT22;4425;50.872;4.712;2023-03-01T08:13:44;6.20;99.90
8778;DHT22;4425;50.872;4.712;2023-03-01T08:16:18;6.40;99.90
8778;DHT22;4425;50.872;4.712;2023-03-01T08:18:46;6.30;99.90
8778;DHT22;4425;50.872;4.712;2023-03-01T08:21:18;6.20;99.90
8778;DHT22;4425;50.872;4.712;2023-03-01T08:23:47;6.70;99.90
8778;DHT22;4425;50.872;4.712;2023-03-01T08:26:15;6.70;99.90
8778;DHT22;4425;50.872;4.712;2023-03-01T08:28:45;6.80;99.90
8778;DHT22;4425;50.872;4.712;2023-03-01T08:31:15;5.30;99.90
8778;DHT22;4425;50.872;4.712;2023-03-01T08:33:42;4.80;99.90
8778;DHT22;4425;50.872;4.712;2023-03-01T08:36:10;3.70;99.90
8778;DHT22;4425;50.872;4.712;2023-03-01T08:38:38;2.40;99.90
8778;DHT22;4425;50.872;4.712;2023-03-01T08:41:05;1.70;99.90
8778;DHT22;4425;50.872;4.712;2023-03-01T08:43:33;1.70;99.90
8778;DHT22;4425;50.872;4.712;2023-03-01T08:46:07;1.80;99.90
8778;DHT22;4425;50.872;4.712;2023-03-01T08:48:36;1.70;99.90
8778;DHT22;4425;50.872;4.712;2023-03-01T08:51:10;1.80;99.90
8778;DHT22;4425;50.872;4.712;2023-03-01T08:53:40;1.80;99.90
8778;DHT22;4425;50.872;4.712;2023-03-01T08:56:15;1.80;99.90
8778;DHT22;4425;50.872;4.712;2023-03-01T08:58:46;1.80;99.90
8778;DHT22;4425;50.872;4.712;2023-03-01T09:01:32;1.80;99.90
8778;DHT22;4425;50.872;4.712;2023-03-01T09:04:00;1.80;99.90
8778;DHT22;4425;50.872;4.712;2023-03-01T09:06:30;1.70;99.90
8778;DHT22;4425;50.872;4.712;2023-03-01T09:08:59;1.60;99.90
8778;DHT22;4425;50.872;4.712;2023-03-01T09:11:28;1.70;99.90
8778;DHT22;4425;50.872;4.712;2023-03-01T09:13:56;1.60;99.90
8778;DHT22;4425;50.872;4.712;2023-03-01T09:16:25;1.70;99.90
8778;DHT22;4425;50.872;4.712;2023-03-01T09:18:54;1.90;99.90
8778;DHT22;4425;50.872;4.712;2023-03-01T09:21:23;2.20;99.90
8778;DHT22;4425;50.872;4.712;2023-03-01T09:23:50;2.10;99.90
8778;DHT22;4425;50.872;4.712;2023-03-01T09:26:21;2.10;99.90
8778;DHT22;4425;50.872;4.712;2023-03-01T09:28:53;2.20;99.90
8778;DHT22;4425;50.872;4.712;2023-03-01T09:31:23;2.40;99.90
8778;DHT22;4425;50.872;4.712;2023-03-01T09:33:55;2.50;99.90
8778;DHT22;4425;50.872;4.712;2023-03-01T09:36:26;2.60;99.90
8778;DHT22;4425;50.872;4.712;2023-03-01T09:39:19;2.60;99.90
8778;DHT22;4425;50.872;4.712;2023-03-01T09:42:20;2.60;99.90
8778;DHT22;4425;50.872;4.712;2023-03-01T09:44:54;2.80;99.90
8778;DHT22;4425;50.872;4.712;2023-03-01T09:47:28;2.90;99.90
8778;DHT22;4425;50.872;4.712;2023-03-01T09:53:06;2.90;99.90
8778;DHT22;4425;50.872;4.712;2023-03-01T09:55:41;3.00;99.90
8778;DHT22;4425;50.872;4.712;2023-03-01T09:58:55;3.00;99.90
8778;DHT22;4425;50.872;4.712;2023-03-01T10:01:32;3.20;99.90
8778;DHT22;4425;50.872;4.712;2023-03-01T10:04:18;3.30;99.90
8778;DHT22;4425;50.872;4.712;2023-03-01T10:06:51;3.40;99.90
8778;DHT22;4425;50.872;4.712;2023-03-01T10:09:34;3.60;99.90
8778;DHT22;4425;50.872;4.712;2023-03-01T10:12:10;3.60;99.90
8778;DHT22;4425;50.872;4.712;2023-03-01T10:14:43;3.60;99.90
8778;DHT22;4425;50.872;4.712;2023-03-01T10:24:14;3.90;99.90
8778;DHT22;4425;50.872;4.712;2023-03-01T10:27:20;4.00;99.90
8778;DHT22;4425;50.872;4.712;2023-03-01T10:29:55;3.90;99.90
8778;DHT22;4425;50.872;4.712;2023-03-01T10:32:31;3.90;99.90
8778;DHT22;4425;50.872;4.712;2023-03-01T10:35:00;4.00;99.90
8778;DHT22;4425;50.872;4.712;2023-03-01T10:37:28;4.00;99.90
8778;DHT22;4425;50.872;4.712;2023-03-01T10:40:02;4.20;99.90
8778;DHT22;4425;50.872;4.712;2023-03-01T10:42:48;4.30;99.90
8778;DHT22;4425;50.872;4.712;2023-03-01T10:45:30;4.50;99.90
8778;DHT22;4425;50.872;4.712;2023-03-01T10:48:13;4.70;99.90
8778;DHT22;4425;50.872;4.712;2023-03-01T10:50:48;4.70;99.90
8778;DHT22;4425;50.872;4.712;2023-03-01T10:53:25;4.70;99.90
8778;DHT22;4425;50.872;4.712;2023-03-01T10:56:00;4.70;99.90
8778;DHT22;4425;50.872;4.712;2023-03-01T10:58:31;4.80;99.90
8778;DHT22;4425;50.872;4.712;2023-03-01T11:01:00;4.80;99.90
8778;DHT22;4425;50.872;4.712;2023-03-01T11:03:30;4.80;99.90
8778;DHT22;4425;50.872;4.712;2023-03-01T11:06:20;4.80;99.90
8778;DHT22;4425;50.872;4.712;2023-03-01T11:08:49;5.10;99.90
8778;DHT22;4425;50.872;4.712;2023-03-01T11:11:24;4.90;99.90
8778;DHT22;4425;50.872;4.712;2023-03-01T11:13:58;5.00;99.90
8778;DHT22;4425;50.872;4.712;2023-03-01T11:16:31;5.10;99.90
8778;DHT22;4425;50.872;4.712;2023-03-01T11:21:47;5.20;99.90
8778;DHT22;4425;50.872;4.712;2023-03-01T11:24:19;5.40;99.90
8778;DHT22;4425;50.872;4.712;2023-03-01T11:26:53;5.50;99.90
8778;DHT22;4425;50.872;4.712;2023-03-01T11:29:32;5.70;99.90
8778;DHT22;4425;50.872;4.712;2023-03-01T11:32:05;5.80;99.90
8778;DHT22;4425;50.872;4.712;2023-03-01T11:34:40;5.80;99.90
8778;DHT22;4425;50.872;4.712;2023-03-01T11:37:20;5.70;99.90
8778;DHT22;4425;50.872;4.712;2023-03-01T11:39:57;5.70;99.90
8778;DHT22;4425;50.872;4.712;2023-03-01T11:42:46;5.80;99.90
8778;DHT22;4425;50.872;4.712;2023-03-01T11:45:47;5.90;99.90
8778;DHT22;4425;50.872;4.712;2023-03-01T11:48:41;5.90;99.90
8778;DHT22;4425;50.872;4.712;2023-03-01T11:51:41;5.90;99.90
8778;DHT22;4425;50.872;4.712;2023-03-01T11:54:35;5.90;99.90
8778;DHT22;4425;50.872;4.712;2023-03-01T11:57:49;6.10;99.90
8778;DHT22;4425;50.872;4.712;2023-03-01T12:00:49;6.00;99.90
8778;DHT22;4425;50.872;4.712;2023-03-01T12:03:45;6.30;99.90
8778;DHT22;4425;50.872;4.712;2023-03-01T12:06:33;6.40;99.90
8778;DHT22;4425;50.872;4.712;2023-03-01T12:09:09;6.40;99.90
8778;DHT22;4425;50.872;4.712;2023-03-01T12:12:08;6.60;99.90
8778;DHT22;4425;50.872;4.712;2023-03-01T12:14:53;6.50;99.90
8778;DHT22;4425;50.872;4.712;2023-03-01T12:20:35;6.40;99.90
8778;DHT22;4425;50.872;4.712;2023-03-01T12:23:20;6.50;99.90
8778;DHT22;4425;50.872;4.712;2023-03-01T12:25:53;6.50;99.90
8778;DHT22;4425;50.872;4.712;2023-03-01T12:28:32;6.80;99.90
8778;DHT22;4425;50.872;4.712;2023-03-01T12:31:36;6.80;99.90
8778;DHT22;4425;50.872;4.712;2023-03-01T12:34:32;6.80;99.90
8778;DHT22;4425;50.872;4.712;2023-03-01T12:37:27;7.00;99.90
8778;DHT22;4425;50.872;4.712;2023-03-01T12:40:10;7.10;99.90
8778;DHT22;4425;50.872;4.712;2023-03-01T12:42:50;7.30;99.90
8778;DHT22;4425;50.872;4.712;2023-03-01T12:45:41;7.40;99.90
8778;DHT22;4425;50.872;4.712;2023-03-01T12:48:28;7.10;99.90
8778;DHT22;4425;50.872;4.712;2023-03-01T12:51:01;6.80;99.90
8778;DHT22;4425;50.872;4.712;2023-03-01T12:53:36;6.80;99.90
8778;DHT22;4425;50.872;4.712;2023-03-01T12:56:10;6.90;99.90
8778;DHT22;4425;50.872;4.712;2023-03-01T12:58:45;6.90;99.90
8778;DHT22;4425;50.872;4.712;2023-03-01T13:01:21;7.10;99.90
8778;DHT22;4425;50.872;4.712;2023-03-01T13:04:16;7.10;99.90
8778;DHT22;4425;50.872;4.712;2023-03-01T13:06:55;7.00;99.90
8778;DHT22;4425;50.872;4.712;2023-03-01T13:09:31;6.90;99.90
8778;DHT22;4425;50.872;4.712;2023-03-01T13:12:02;6.90;99.90
8778;DHT22;4425;50.872;4.712;2023-03-01T13:14:45;6.80;99.90
8778;DHT22;4425;50.872;4.712;2023-03-01T13:17:39;6.90;99.90
8778;DHT22;4425;50.872;4.712;2023-03-01T13:20:15;7.00;99.90
8778;DHT22;4425;50.872;4.712;2023-03-01T13:22:45;7.30;99.90
8778;DHT22;4425;50.872;4.712;2023-03-01T13:25:16;7.20;99.90
8778;DHT22;4425;50.872;4.712;2023-03-01T13:27:45;7.10;99.90
8778;DHT22;4425;50.872;4.712;2023-03-01T13:30:44;7.30;99.90
8778;DHT22;4425;50.872;4.712;2023-03-01T13:33:37;7.30;99.80
8778;DHT22;4425;50.872;4.712;2023-03-01T13:36:07;7.40;99.60
8778;DHT22;4425;50.872;4.712;2023-03-01T13:38:38;7.40;99.80
8778;DHT22;4425;50.872;4.712;2023-03-01T13:41:13;7.20;99.70
8778;DHT22;4425;50.872;4.712;2023-03-01T13:43:43;7.30;99.80
8778;DHT22;4425;50.872;4.712;2023-03-01T13:46:15;7.20;99.70
8778;DHT22;4425;50.872;4.712;2023-03-01T13:48:45;7.30;99.90
8778;DHT22;4425;50.872;4.712;2023-03-01T13:51:13;7.10;98.90
8778;DHT22;4425;50.872;4.712;2023-03-01T13:53:43;7.00;99.30
8778;DHT22;4425;50.872;4.712;2023-03-01T13:56:15;7.20;99.60
8778;DHT22;4425;50.872;4.712;2023-03-01T13:58:57;7.30;99.10
8778;DHT22;4425;50.872;4.712;2023-03-01T14:01:30;7.40;99.10
8778;DHT22;4425;50.872;4.712;2023-03-01T14:04:21;7.30;98.90
8778;DHT22;4425;50.872;4.712;2023-03-01T14:06:51;7.30;99.50
8778;DHT22;4425;50.872;4.712;2023-03-01T14:09:24;7.40;99.40
8778;DHT22;4425;50.872;4.712;2023-03-01T14:15:00;7.30;99.80
8778;DHT22;4425;50.872;4.712;2023-03-01T14:17:45;7.50;99.90
8778;DHT22;4425;50.872;4.712;2023-03-01T14:20:23;7.40;99.30
8778;DHT22;4425;50.872;4.712;2023-03-01T14:22:55;7.30;99.50
8778;DHT22;4425;50.872;4.712;2023-03-01T14:25:27;7.30;99.50
8778;DHT22;4425;50.872;4.712;2023-03-01T14:31:39;7.40;98.70
8778;DHT22;4425;50.872;4.712;2023-03-01T14:34:16;7.40;98.60
8778;DHT22;4425;50.872;4.712;2023-03-01T14:37:10;7.30;99.10
8778;DHT22;4425;50.872;4.712;2023-03-01T14:39:38;7.30;98.80
8778;DHT22;4425;50.872;4.712;2023-03-01T14:42:28;7.30;99.10
8778;DHT22;4425;50.872;4.712;2023-03-01T14:49:11;7.30;98.90
8778;DHT22;4425;50.872;4.712;2023-03-01T14:51:42;7.30;98.90
8778;DHT22;4425;50.872;4.712;2023-03-01T14:54:21;7.30;99.20
8778;DHT22;4425;50.872;4.712;2023-03-01T14:56:51;7.30;99.00
8778;DHT22;4425;50.872;4.712;2023-03-01T14:59:21;7.40;98.90
8778;DHT22;4425;50.872;4.712;2023-03-01T15:01:50;7.50;98.40
8778;DHT22;4425;50.872;4.712;2023-03-01T15:04:22;7.50;98.40
8778;DHT22;4425;50.872;4.712;2023-03-01T15:06:51;7.40;98.00
8778;DHT22;4425;50.872;4.712;2023-03-01T15:09:21;7.40;98.00
8778;DHT22;4425;50.872;4.712;2023-03-01T15:11:49;7.30;97.90
8778;DHT22;4425;50.872;4.712;2023-03-01T15:14:38;7.40;97.80
8778;DHT22;4425;50.872;4.712;2023-03-01T15:17:26;7.50;98.00
8778;DHT22;4425;50.872;4.712;2023-03-01T15:20:14;7.50;97.90
8778;DHT22;4425;50.872;4.712;2023-03-01T15:22:44;7.50;97.90
8778;DHT22;4425;50.872;4.712;2023-03-01T15:25:16;7.50;98.00
8778;DHT22;4425;50.872;4.712;2023-03-01T15:27:46;7.50;97.60
8778;DHT22;4425;50.872;4.712;2023-03-01T15:30:17;7.40;97.90
8778;DHT22;4425;50.872;4.712;2023-03-01T15:32:45;7.40;97.90
8778;DHT22;4425;50.872;4.712;2023-03-01T15:35:41;7.30;98.00
8778;DHT22;4425;50.872;4.712;2023-03-01T15:38:25;7.20;98.30
8778;DHT22;4425;50.872;4.712;2023-03-01T15:40:54;7.20;98.70
8778;DHT22;4425;50.872;4.712;2023-03-01T15:43:52;7.10;98.80
8778;DHT22;4425;50.872;4.712;2023-03-01T15:46:33;7.10;98.90
8778;DHT22;4425;50.872;4.712;2023-03-01T15:49:34;7.10;98.80
8778;DHT22;4425;50.872;4.712;2023-03-01T15:52:11;7.10;99.20
8778;DHT22;4425;50.872;4.712;2023-03-01T15:54:40;7.10;99.20
8778;DHT22;4425;50.872;4.712;2023-03-01T15:57:12;7.00;99.40
8778;DHT22;4425;50.872;4.712;2023-03-01T15:59:41;7.10;99.60
8778;DHT22;4425;50.872;4.712;2023-03-01T16:02:10;7.00;99.70
8778;DHT22;4425;50.872;4.712;2023-03-01T16:04:38;7.00;99.50
8778;DHT22;4425;50.872;4.712;2023-03-01T16:07:09;7.00;99.10
8778;DHT22;4425;50.872;4.712;2023-03-01T16:09:36;6.90;99.10
8778;DHT22;4425;50.872;4.712;2023-03-01T16:12:05;6.90;99.10
8778;DHT22;4425;50.872;4.712;2023-03-01T16:14:36;6.90;99.20
8778;DHT22;4425;50.872;4.712;2023-03-01T16:17:05;6.80;99.30
8778;DHT22;4425;50.872;4.712;2023-03-01T16:19:36;6.80;99.40
8778;DHT22;4425;50.872;4.712;2023-03-01T16:22:08;6.70;99.60
8778;DHT22;4425;50.872;4.712;2023-03-01T16:24:41;6.70;99.60
8778;DHT22;4425;50.872;4.712;2023-03-01T16:27:08;6.70;99.70
8778;DHT22;4425;50.872;4.712;2023-03-01T16:29:36;6.70;99.50
8778;DHT22;4425;50.872;4.712;2023-03-01T16:32:07;6.70;99.40
8778;DHT22;4425;50.872;4.712;2023-03-01T16:34:35;6.70;99.30
8778;DHT22;4425;50.872;4.712;2023-03-01T16:37:03;6.60;99.60
8778;DHT22;4425;50.872;4.712;2023-03-01T16:39:38;6.50;99.70
8778;DHT22;4425;50.872;4.712;2023-03-01T16:42:11;6.50;99.90
8778;DHT22;4425;50.872;4.712;2023-03-01T16:44:40;6.50;99.90
8778;DHT22;4425;50.872;4.712;2023-03-01T16:47:07;6.40;99.90
8778;DHT22;4425;50.872;4.712;2023-03-01T16:49:35;6.50;99.90
8778;DHT22;4425;50.872;4.712;2023-03-01T16:52:09;6.30;99.90
8778;DHT22;4425;50.872;4.712;2023-03-01T16:54:39;6.30;99.90
8778;DHT22;4425;50.872;4.712;2023-03-01T16:57:07;6.30;99.90
8778;DHT22;4425;50.872;4.712;2023-03-01T16:59:35;6.20;99.90
8778;DHT22;4425;50.872;4.712;2023-03-01T17:02:03;6.10;99.90
8778;DHT22;4425;50.872;4.712;2023-03-01T17:04:33;6.10;99.90
8778;DHT22;4425;50.872;4.712;2023-03-01T17:07:00;6.00;99.90
8778;DHT22;4425;50.872;4.712;2023-03-01T17:09:28;6.00;99.90
8778;DHT22;4425;50.872;4.712;2023-03-01T17:11:57;6.00;99.90
8778;DHT22;4425;50.872;4.712;2023-03-01T17:14:30;5.90;99.90
8778;DHT22;4425;50.872;4.712;2023-03-01T17:17:02;5.90;99.90
8778;DHT22;4425;50.872;4.712;2023-03-01T17:19:31;5.80;99.90
8778;DHT22;4425;50.872;4.712;2023-03-01T17:21:58;5.80;99.90
8778;DHT22;4425;50.872;4.712;2023-03-01T17:24:27;5.70;99.90
8778;DHT22;4425;50.872;4.712;2023-03-01T17:26:58;5.60;99.90
8778;DHT22;4425;50.872;4.712;2023-03-01T17:29:28;5.70;99.90
8778;DHT22;4425;50.872;4.712;2023-03-01T17:31:58;5.60;99.90